Time;durP1;ratioP1;P1;durP2;ratioP2;P2;SDS_P1;SDS_P2;PMS_P1;PMS_P2;Temp;Humidity;BMP_temperature;BMP_pressure;BME280_temperature;BME280_humidity;BME280_pressure;Samples;Min_cycle;Max_cycle;Signal;HPM_P1;HPM_P2
2021/08/29 00:01:28;;;;;;;1999.90;999.90;;;;;;;;;;5102777;28;20446;-85
2021/08/29 00:03:55;;;;;;;1999.90;999.90;;;;;;;;;;5102547;28;20446;-84
2021/08/29 00:06:22;;;;;;;1999.90;999.90;;;;;;;;;;5101792;28;20586;-84
2021/08/29 00:08:49;;;;;;;1999.90;999.90;;;;;;;;;;5100600;28;20451;-84
2021/08/29 00:11:16;;;;;;;1999.90;999.90;;;;;;;;;;5102493;28;20451;-85
2021/08/29 00:13:43;;;;;;;1999.90;999.90;;;;;;;;;;5103483;28;20475;-85
2021/08/29 00:16:12;;;;;;;1999.90;999.90;;;;;;;;;;5103431;28;20465;-85
2021/08/29 00:18:40;;;;;;;1999.90;999.90;;;;;;;;;;5103347;28;20835;-85
2021/08/29 00:21:07;;;;;;;1999.90;999.90;;;;;;;;;;5105638;28;20490;-86
2021/08/29 00:23:34;;;;;;;1999.90;999.90;;;;;;;;;;5108212;28;20448;-85
2021/08/29 00:26:01;;;;;;;1999.90;999.90;;;;;;;;;;5107718;28;20500;-89
2021/08/29 00:28:28;;;;;;;1999.90;999.90;;;;;;;;;;5105949;28;20470;-85
2021/08/29 00:30:55;;;;;;;1999.90;999.90;;;;;;;;;;5106962;28;20874;-86
2021/08/29 00:33:24;;;;;;;1999.90;999.90;;;;;;;;;;5105046;28;20442;-85
2021/08/29 00:35:52;;;;;;;1999.90;999.90;;;;;;;;;;5105997;28;20448;-86
2021/08/29 00:38:19;;;;;;;1999.90;999.90;;;;;;;;;;5103864;28;20468;-84
2021/08/29 00:40:47;;;;;;;1999.90;999.90;;;;;;;;;;5099455;28;20452;-83
2021/08/29 00:43:14;;;;;;;1999.90;999.90;;;;;;;;;;5111615;28;20449;-85
2021/08/29 00:45:41;;;;;;;1999.90;999.90;;;;;;;;;;5113457;28;20510;-84
2021/08/29 00:48:08;;;;;;;1999.90;999.90;;;;;;;;;;5108123;28;20520;-83
2021/08/29 00:50:37;;;;;;;1999.90;999.90;;;;;;;;;;5099623;28;20445;-83
2021/08/29 00:53:04;;;;;;;1999.90;999.90;;;;;;;;;;5098560;28;20453;-85
2021/08/29 00:55:31;;;;;;;1999.90;999.90;;;;;;;;;;5098348;28;20446;-84
2021/08/29 00:57:59;;;;;;;1999.90;999.90;;;;;;;;;;5097907;28;20485;-85
2021/08/29 01:00:26;;;;;;;1999.90;999.90;;;;;;;;;;5099511;28;20443;-84
2021/08/29 01:02:53;;;;;;;1999.90;999.90;;;;;;;;;;5099748;28;20972;-86
2021/08/29 01:05:23;;;;;;;1999.90;999.90;;;;;;;;;;5098987;28;20452;-85
2021/08/29 01:07:55;;;;;;;1999.90;999.90;;;;;;;;;;5097490;28;20470;-84
2021/08/29 01:10:27;;;;;;;1999.90;999.90;;;;;;;;;;5097067;28;20456;-84
2021/08/29 01:12:56;;;;;;;1999.90;999.90;;;;;;;;;;5096974;28;20449;-86
2021/08/29 01:15:24;;;;;;;1999.90;999.90;;;;;;;;;;5096111;28;20864;-83
2021/08/29 01:17:52;;;;;;;1999.90;999.90;;;;;;;;;;5096414;28;20482;-85
2021/08/29 01:20:22;;;;;;;1999.90;999.90;;;;;;;;;;5096417;28;20442;-86
2021/08/29 01:22:50;;;;;;;1999.90;999.90;;;;;;;;;;5096159;28;20443;-84
2021/08/29 01:25:22;;;;;;;1999.90;999.90;;;;;;;;;;5096114;28;20489;-85
2021/08/29 01:27:51;;;;;;;1999.90;999.90;;;;;;;;;;5095704;28;20565;-86
2021/08/29 01:30:20;;;;;;;1999.90;999.90;;;;;;;;;;5096524;28;20454;-84
2021/08/29 01:32:47;;;;;;;1999.90;999.90;;;;;;;;;;5095087;28;20450;-84
2021/08/29 01:35:15;;;;;;;1999.90;999.90;;;;;;;;;;5095902;28;20463;-84
2021/08/29 01:37:43;;;;;;;1999.90;999.90;;;;;;;;;;5095160;28;20471;-84
2021/08/29 01:40:11;;;;;;;1999.90;999.90;;;;;;;;;;5095764;28;20474;-84
2021/08/29 01:42:39;;;;;;;1999.90;999.90;;;;;;;;;;5095545;28;20464;-85
2021/08/29 01:45:06;;;;;;;1999.90;999.90;;;;;;;;;;5095790;28;20461;-84
2021/08/29 01:47:35;;;;;;;1999.90;999.90;;;;;;;;;;5094882;28;21017;-84
2021/08/29 01:50:02;;;;;;;1999.90;999.90;;;;;;;;;;5095149;28;20449;-84
2021/08/29 01:52:29;;;;;;;1999.90;999.90;;;;;;;;;;5095351;28;20454;-84
2021/08/29 01:54:56;;;;;;;1999.90;999.90;;;;;;;;;;5095086;28;20460;-84
2021/08/29 01:57:23;;;;;;;1999.90;999.90;;;;;;;;;;5094583;28;20483;-84
2021/08/29 01:59:51;;;;;;;1999.90;999.90;;;;;;;;;;5094426;28;20471;-86
2021/08/29 02:02:19;;;;;;;1999.90;999.90;;;;;;;;;;5094749;28;20558;-84
2021/08/29 02:04:48;;;;;;;1999.90;999.90;;;;;;;;;;5094196;28;20453;-83
2021/08/29 02:07:26;;;;;;;1999.90;999.90;;;;;;;;;;5093650;28;20489;-85
2021/08/29 02:09:54;;;;;;;1999.90;999.90;;;;;;;;;;5094444;28;20453;-84
2021/08/29 02:12:22;;;;;;;1999.90;999.90;;;;;;;;;;5094566;28;20465;-83
2021/08/29 02:14:51;;;;;;;1999.90;999.90;;;;;;;;;;5107272;28;20513;-85
2021/08/29 02:17:18;;;;;;;1999.90;999.90;;;;;;;;;;5108253;28;20476;-85
2021/08/29 02:19:45;;;;;;;1999.90;999.90;;;;;;;;;;5099550;28;20446;-84
2021/08/29 02:22:14;;;;;;;1999.90;999.90;;;;;;;;;;5100606;28;20463;-85
2021/08/29 02:24:41;;;;;;;1999.90;999.90;;;;;;;;;;5099981;28;20460;-83
2021/08/29 02:27:09;;;;;;;1999.90;999.90;;;;;;;;;;5100593;28;20496;-85
2021/08/29 02:29:37;;;;;;;1999.90;999.90;;;;;;;;;;5100449;28;20446;-84
2021/08/29 02:32:04;;;;;;;1999.90;999.90;;;;;;;;;;5082590;28;20457;-84
2021/08/29 02:34:31;;;;;;;1999.90;999.90;;;;;;;;;;5101100;28;20459;-85
2021/08/29 02:36:59;;;;;;;1999.90;999.90;;;;;;;;;;5100304;28;20820;-86
2021/08/29 02:39:27;;;;;;;1999.90;999.90;;;;;;;;;;5110283;28;20452;-83
2021/08/29 02:41:55;;;;;;;1999.90;999.90;;;;;;;;;;5115501;28;20446;-85
2021/08/29 02:44:23;;;;;;;1999.90;999.90;;;;;;;;;;5110266;28;20533;-83
2021/08/29 02:46:51;;;;;;;1999.90;999.90;;;;;;;;;;5096494;28;20494;-83
2021/08/29 02:49:20;;;;;;;1999.90;999.90;;;;;;;;;;5096672;28;20438;-84
2021/08/29 02:51:48;;;;;;;1999.90;999.90;;;;;;;;;;5096270;28;20495;-85
2021/08/29 02:54:16;;;;;;;1999.90;999.90;;;;;;;;;;5101179;28;20489;-85
2021/08/29 02:56:46;;;;;;;1999.90;999.90;;;;;;;;;;5104489;28;20481;-84
2021/08/29 02:59:13;;;;;;;1999.90;999.90;;;;;;;;;;5108569;28;20442;-85
2021/08/29 03:01:41;;;;;;;1999.90;999.90;;;;;;;;;;5107579;28;20446;-85
2021/08/29 03:04:08;;;;;;;1999.90;999.90;;;;;;;;;;5104948;28;20442;-85
2021/08/29 03:06:36;;;;;;;1999.90;999.90;;;;;;;;;;5104789;28;20490;-85
2021/08/29 03:09:03;;;;;;;1999.90;999.90;;;;;;;;;;5106857;28;20501;-84
2021/08/29 03:11:30;;;;;;;1999.90;999.90;;;;;;;;;;5106360;28;20454;-86
2021/08/29 03:13:59;;;;;;;1999.90;999.90;;;;;;;;;;5104891;28;20448;-85
2021/08/29 03:16:26;;;;;;;1999.90;999.90;;;;;;;;;;5104110;28;20540;-87
2021/08/29 03:18:53;;;;;;;1999.90;999.90;;;;;;;;;;5104318;28;20820;-85
2021/08/29 03:21:21;;;;;;;1999.90;999.90;;;;;;;;;;5105057;28;20452;-86
2021/08/29 03:23:48;;;;;;;1999.90;999.90;;;;;;;;;;5104090;28;20452;-84
2021/08/29 03:26:16;;;;;;;1999.90;999.90;;;;;;;;;;5102013;28;20473;-85
2021/08/29 03:28:43;;;;;;;1999.90;999.90;;;;;;;;;;5103190;28;20449;-85
2021/08/29 03:31:11;;;;;;;1999.90;999.90;;;;;;;;;;5103649;28;20444;-84
2021/08/29 03:33:41;;;;;;;1999.90;999.90;;;;;;;;;;5104993;28;20462;-87
2021/08/29 03:36:09;;;;;;;1999.90;999.90;;;;;;;;;;5104073;28;20475;-84
2021/08/29 03:38:37;;;;;;;1999.90;999.90;;;;;;;;;;5105004;28;21001;-85
2021/08/29 03:41:04;;;;;;;1999.90;999.90;;;;;;;;;;5105872;28;20454;-86
2021/08/29 03:43:32;;;;;;;1999.90;999.90;;;;;;;;;;5104083;28;20452;-85
2021/08/29 03:45:59;;;;;;;1999.90;999.90;;;;;;;;;;5097374;28;20446;-84
2021/08/29 03:48:28;;;;;;;1999.90;999.90;;;;;;;;;;5095407;28;20481;-84
2021/08/29 03:50:55;;;;;;;1999.90;999.90;;;;;;;;;;5097057;28;20450;-84
2021/08/29 03:53:23;;;;;;;1999.90;999.90;;;;;;;;;;5095926;28;20463;-83
2021/08/29 03:55:50;;;;;;;1999.90;999.90;;;;;;;;;;5094451;28;20450;-85
2021/08/29 03:58:17;;;;;;;1999.90;999.90;;;;;;;;;;5095280;28;20448;-84
2021/08/29 04:00:44;;;;;;;1999.90;999.90;;;;;;;;;;5096997;28;20447;-85
2021/08/29 04:03:12;;;;;;;1999.90;999.90;;;;;;;;;;5095288;28;20446;-84
2021/08/29 04:05:40;;;;;;;1999.90;999.90;;;;;;;;;;5094641;28;20508;-83
2021/08/29 04:08:09;;;;;;;1999.90;999.90;;;;;;;;;;5095392;28;20549;-84
2021/08/29 04:10:37;;;;;;;1999.90;999.90;;;;;;;;;;5095187;28;20930;-85
2021/08/29 04:13:06;;;;;;;1999.90;999.90;;;;;;;;;;5094839;28;20833;-85
2021/08/29 04:15:33;;;;;;;1999.90;999.90;;;;;;;;;;5096616;28;20446;-84
2021/08/29 04:18:01;;;;;;;1999.90;999.90;;;;;;;;;;5096136;28;20989;-83
2021/08/29 04:20:28;;;;;;;1999.90;999.90;;;;;;;;;;5094381;28;20462;-84
2021/08/29 04:22:57;;;;;;;1999.90;999.90;;;;;;;;;;5094368;28;20450;-84
2021/08/29 04:25:24;;;;;;;1999.90;999.90;;;;;;;;;;5095661;28;20454;-84
2021/08/29 04:27:52;;;;;;;1999.90;999.90;;;;;;;;;;5095095;28;20492;-84
2021/08/29 04:30:20;;;;;;;1999.90;999.90;;;;;;;;;;5095330;28;20453;-84
2021/08/29 04:32:50;;;;;;;1999.90;999.90;;;;;;;;;;5094383;28;20836;-83
2021/08/29 04:35:17;;;;;;;1999.90;999.90;;;;;;;;;;5094221;28;20446;-84
2021/08/29 04:37:44;;;;;;;1999.90;999.90;;;;;;;;;;5095349;28;20477;-84
2021/08/29 04:40:13;;;;;;;1999.90;999.90;;;;;;;;;;5093938;28;20456;-84
2021/08/29 04:42:40;;;;;;;1999.90;999.90;;;;;;;;;;5093262;28;20829;-83
2021/08/29 04:45:07;;;;;;;1999.90;999.90;;;;;;;;;;5093292;28;20969;-83
2021/08/29 04:47:34;;;;;;;1999.90;999.90;;;;;;;;;;5093138;28;20569;-85
2021/08/29 04:50:01;;;;;;;1999.90;999.90;;;;;;;;;;5092714;28;20456;-83
2021/08/29 04:52:29;;;;;;;1999.90;999.90;;;;;;;;;;5092919;28;20471;-84
2021/08/29 04:54:56;;;;;;;1999.90;999.90;;;;;;;;;;5093002;28;20455;-83
2021/08/29 04:57:25;;;;;;;1999.90;999.90;;;;;;;;;;5118836;22;20502;-84
2021/08/29 04:59:52;;;;;;;1999.90;999.90;;;;;;;;;;5101222;28;20447;-84
2021/08/29 05:02:20;;;;;;;1999.90;999.90;;;;;;;;;;5100703;28;20457;-84
2021/08/29 05:04:47;;;;;;;1999.90;999.90;;;;;;;;;;5101763;28;20530;-84
2021/08/29 05:07:14;;;;;;;1999.90;999.90;;;;;;;;;;5104584;28;20487;-84
2021/08/29 05:09:41;;;;;;;1999.90;999.90;;;;;;;;;;5105408;28;20470;-85
2021/08/29 05:12:10;;;;;;;1999.90;999.90;;;;;;;;;;5105801;28;20451;-84
2021/08/29 05:14:39;;;;;;;1999.90;999.90;;;;;;;;;;5107565;28;20454;-85
2021/08/29 05:17:06;;;;;;;1999.90;999.90;;;;;;;;;;5103414;28;20462;-84
2021/08/29 05:19:33;;;;;;;1999.90;999.90;;;;;;;;;;5101382;28;20456;-85
2021/08/29 05:22:00;;;;;;;1999.90;999.90;;;;;;;;;;5101283;28;20469;-85
2021/08/29 05:24:27;;;;;;;1999.90;999.90;;;;;;;;;;5100012;28;20521;-85
2021/08/29 05:26:55;;;;;;;1999.90;999.90;;;;;;;;;;5100307;28;20473;-85
2021/08/29 05:29:22;;;;;;;1999.90;999.90;;;;;;;;;;5100393;28;20453;-85
2021/08/29 05:31:50;;;;;;;1999.90;999.90;;;;;;;;;;5100746;28;20460;-85
2021/08/29 05:34:17;;;;;;;1999.90;999.90;;;;;;;;;;5100804;28;20540;-85
2021/08/29 05:36:45;;;;;;;1999.90;999.90;;;;;;;;;;5100228;28;20472;-85
2021/08/29 05:39:12;;;;;;;1999.90;999.90;;;;;;;;;;5099986;28;20960;-85
2021/08/29 05:41:39;;;;;;;1999.90;999.90;;;;;;;;;;5100106;28;20449;-85
2021/08/29 05:44:06;;;;;;;1999.90;999.90;;;;;;;;;;5100512;28;20441;-85
2021/08/29 05:46:33;;;;;;;1999.90;999.90;;;;;;;;;;5100534;28;20494;-85
2021/08/29 05:49:02;;;;;;;1999.90;999.90;;;;;;;;;;5099693;28;21041;-82
2021/08/29 05:51:29;;;;;;;1999.90;999.90;;;;;;;;;;5098310;28;20450;-83
2021/08/29 05:53:56;;;;;;;1999.90;999.90;;;;;;;;;;5097930;28;20458;-82
2021/08/29 05:56:23;;;;;;;1999.90;999.90;;;;;;;;;;5097306;28;20457;-82
2021/08/29 05:58:50;;;;;;;1999.90;999.90;;;;;;;;;;5097975;28;20820;-82
2021/08/29 06:01:18;;;;;;;1999.90;999.90;;;;;;;;;;5097893;28;20457;-83
2021/08/29 06:03:45;;;;;;;1999.90;999.90;;;;;;;;;;5097470;28;20536;-83
2021/08/29 06:06:13;;;;;;;1999.90;999.90;;;;;;;;;;5097276;28;20448;-82
2021/08/29 06:08:41;;;;;;;1999.90;999.90;;;;;;;;;;5097875;28;20492;-83
2021/08/29 06:11:09;;;;;;;1999.90;999.90;;;;;;;;;;5097634;28;20560;-82
2021/08/29 06:13:36;;;;;;;1999.90;999.90;;;;;;;;;;5097953;28;20541;-83
2021/08/29 06:16:03;;;;;;;1999.90;999.90;;;;;;;;;;5097564;28;20456;-84
2021/08/29 06:18:30;;;;;;;1999.90;999.90;;;;;;;;;;5096315;28;20857;-83
2021/08/29 06:20:58;;;;;;;1999.90;999.90;;;;;;;;;;5097343;28;20942;-82
2021/08/29 06:23:26;;;;;;;1999.90;999.90;;;;;;;;;;5097475;28;20434;-83
2021/08/29 06:25:53;;;;;;;1999.90;999.90;;;;;;;;;;5096867;28;20443;-83
2021/08/29 06:28:21;;;;;;;1999.90;999.90;;;;;;;;;;5095609;28;20489;-82
2021/08/29 06:30:48;;;;;;;1999.90;999.90;;;;;;;;;;5094586;28;20475;-83
2021/08/29 06:33:15;;;;;;;1999.90;999.90;;;;;;;;;;5095575;28;20460;-83
2021/08/29 06:35:42;;;;;;;1999.90;999.90;;;;;;;;;;5095941;28;20836;-83
2021/08/29 06:38:10;;;;;;;1999.90;999.90;;;;;;;;;;5095620;28;20475;-82
2021/08/29 06:40:38;;;;;;;1999.90;999.90;;;;;;;;;;5096638;28;20449;-84
2021/08/29 06:43:05;;;;;;;1999.90;999.90;;;;;;;;;;5097342;28;20973;-83
2021/08/29 06:45:33;;;;;;;1999.90;999.90;;;;;;;;;;5096771;28;20452;-84
2021/08/29 06:48:00;;;;;;;1999.90;999.90;;;;;;;;;;5099545;28;20485;-84
2021/08/29 06:50:27;;;;;;;1999.90;999.90;;;;;;;;;;5100000;28;20946;-84
2021/08/29 06:52:54;;;;;;;1999.90;999.90;;;;;;;;;;5098446;28;20459;-84
2021/08/29 06:55:21;;;;;;;1999.90;999.90;;;;;;;;;;5098287;28;20454;-84
2021/08/29 06:57:50;;;;;;;1999.90;999.90;;;;;;;;;;5096873;28;20482;-83
2021/08/29 07:00:17;;;;;;;1999.90;999.90;;;;;;;;;;5097277;28;20830;-83
2021/08/29 07:02:44;;;;;;;1999.90;999.90;;;;;;;;;;5098059;28;20454;-83
2021/08/29 07:05:12;;;;;;;1999.90;999.90;;;;;;;;;;5098863;28;20456;-84
2021/08/29 07:07:39;;;;;;;1999.90;999.90;;;;;;;;;;5099188;28;20860;-83
2021/08/29 07:10:06;;;;;;;1999.90;999.90;;;;;;;;;;5100004;28;20450;-84
2021/08/29 07:12:33;;;;;;;1999.90;999.90;;;;;;;;;;5100079;28;20452;-83
2021/08/29 07:15:02;;;;;;;1999.90;999.90;;;;;;;;;;5098458;28;20438;-82
2021/08/29 07:17:29;;;;;;;1999.90;999.90;;;;;;;;;;5096855;28;20554;-83
2021/08/29 07:19:56;;;;;;;1999.90;999.90;;;;;;;;;;5097001;28;20460;-82
2021/08/29 07:22:23;;;;;;;1999.90;999.90;;;;;;;;;;5097692;28;20430;-84
2021/08/29 07:24:50;;;;;;;1999.90;999.90;;;;;;;;;;5096699;28;20467;-83
2021/08/29 07:27:17;;;;;;;1999.90;999.90;;;;;;;;;;5095922;28;20481;-84
2021/08/29 07:29:44;;;;;;;1999.90;999.90;;;;;;;;;;5096835;28;20482;-82
2021/08/29 07:32:13;;;;;;;1999.90;999.90;;;;;;;;;;5096625;28;20461;-83
2021/08/29 07:34:41;;;;;;;1999.90;999.90;;;;;;;;;;5095727;28;20457;-83
2021/08/29 07:37:08;;;;;;;1999.90;999.90;;;;;;;;;;5095632;28;20469;-82
2021/08/29 07:39:36;;;;;;;1999.90;999.90;;;;;;;;;;5095766;28;20462;-82
2021/08/29 07:42:04;;;;;;;1999.90;999.90;;;;;;;;;;5095602;28;20439;-83
2021/08/29 07:44:31;;;;;;;1999.90;999.90;;;;;;;;;;5096337;28;20454;-82
2021/08/29 07:46:58;;;;;;;1999.90;999.90;;;;;;;;;;5095819;28;20826;-83
2021/08/29 07:49:26;;;;;;;1999.90;999.90;;;;;;;;;;5096036;28;20490;-82
2021/08/29 07:51:53;;;;;;;1999.90;999.90;;;;;;;;;;5095684;28;20456;-83
2021/08/29 07:54:20;;;;;;;1999.90;999.90;;;;;;;;;;5095304;28;20462;-83
2021/08/29 07:56:47;;;;;;;1999.90;999.90;;;;;;;;;;5094746;28;20471;-83
2021/08/29 07:59:15;;;;;;;1999.90;999.90;;;;;;;;;;5095227;28;20444;-83
2021/08/29 08:01:42;;;;;;;1999.90;999.90;;;;;;;;;;5095184;28;20451;-83
2021/08/29 08:04:09;;;;;;;1999.90;999.90;;;;;;;;;;5094715;28;20855;-82
2021/08/29 08:06:37;;;;;;;1999.90;999.90;;;;;;;;;;5094577;28;20456;-84
2021/08/29 08:09:05;;;;;;;1999.90;999.90;;;;;;;;;;5095015;28;20492;-83
2021/08/29 08:11:32;;;;;;;1999.90;999.90;;;;;;;;;;5095612;28;20451;-82
2021/08/29 08:13:59;;;;;;;1999.90;999.90;;;;;;;;;;5095152;28;20464;-83
2021/08/29 08:16:26;;;;;;;1999.90;999.90;;;;;;;;;;5095114;28;20475;-83
2021/08/29 08:18:53;;;;;;;1999.90;999.90;;;;;;;;;;5095220;28;20442;-83
2021/08/29 08:21:20;;;;;;;1999.90;999.90;;;;;;;;;;5095530;28;20834;-82
2021/08/29 08:23:49;;;;;;;1999.90;999.90;;;;;;;;;;5095792;28;20449;-82
2021/08/29 08:26:16;;;;;;;1999.90;999.90;;;;;;;;;;5095059;28;20958;-84
2021/08/29 08:28:44;;;;;;;1999.90;999.90;;;;;;;;;;5094984;28;20488;-82
2021/08/29 08:31:11;;;;;;;1999.90;999.90;;;;;;;;;;5095273;28;20945;-83
2021/08/29 08:33:38;;;;;;;1999.90;999.90;;;;;;;;;;5095182;28;20452;-83
2021/08/29 08:36:06;;;;;;;1999.90;999.90;;;;;;;;;;5095117;28;20470;-83
2021/08/29 08:38:33;;;;;;;1999.90;999.90;;;;;;;;;;5094610;28;20472;-82
2021/08/29 08:41:02;;;;;;;1999.90;999.90;;;;;;;;;;5095215;28;21040;-84
2021/08/29 08:43:29;;;;;;;1999.90;999.90;;;;;;;;;;5098914;28;20471;-83
2021/08/29 08:45:56;;;;;;;1999.90;999.90;;;;;;;;;;5098686;28;20452;-82
2021/08/29 08:48:23;;;;;;;1999.90;999.90;;;;;;;;;;5099087;28;20495;-82
2021/08/29 08:50:52;;;;;;;1999.90;999.90;;;;;;;;;;5101984;28;20442;-83
2021/08/29 08:53:20;;;;;;;1999.90;999.90;;;;;;;;;;5101747;28;20446;-83
2021/08/29 08:55:47;;;;;;;1999.90;999.90;;;;;;;;;;5101848;28;20452;-83
2021/08/29 08:58:17;;;;;;;1999.90;999.90;;;;;;;;;;5100625;28;20480;-84
2021/08/29 09:00:45;;;;;;;1999.90;999.90;;;;;;;;;;5100853;28;20463;-83
2021/08/29 09:03:12;;;;;;;1999.90;999.90;;;;;;;;;;5100656;28;20460;-82
2021/08/29 09:05:40;;;;;;;1999.90;999.90;;;;;;;;;;5101122;28;20518;-83
2021/08/29 09:08:07;;;;;;;1999.90;999.90;;;;;;;;;;5099350;28;20469;-83
2021/08/29 09:10:35;;;;;;;1999.90;999.90;;;;;;;;;;5099648;28;20457;-83
2021/08/29 09:13:03;;;;;;;1999.90;999.90;;;;;;;;;;5099973;28;20480;-83
2021/08/29 09:15:31;;;;;;;1999.90;999.90;;;;;;;;;;5099869;28;20453;-83
2021/08/29 09:17:59;;;;;;;1999.90;999.90;;;;;;;;;;5098486;28;20848;-83
2021/08/29 09:20:27;;;;;;;1999.90;999.90;;;;;;;;;;5099326;28;21131;-83
2021/08/29 09:22:57;;;;;;;1999.90;999.90;;;;;;;;;;5098189;28;20537;-83
2021/08/29 09:25:25;;;;;;;1999.90;999.90;;;;;;;;;;5098173;28;20548;-84
2021/08/29 09:27:53;;;;;;;1999.90;999.90;;;;;;;;;;5098616;28;20470;-83
2021/08/29 09:30:21;;;;;;;1999.90;999.90;;;;;;;;;;5099077;28;20487;-83
2021/08/29 09:32:51;;;;;;;1999.90;999.90;;;;;;;;;;5098883;28;20828;-83
2021/08/29 09:35:18;;;;;;;1999.90;999.90;;;;;;;;;;5098694;28;20443;-83
2021/08/29 09:37:45;;;;;;;1999.90;999.90;;;;;;;;;;5098194;28;20458;-84
2021/08/29 09:40:13;;;;;;;1999.90;999.90;;;;;;;;;;5098233;28;20455;-84
2021/08/29 09:42:41;;;;;;;1999.90;999.90;;;;;;;;;;5098048;28;20452;-83
2021/08/29 09:45:08;;;;;;;1999.90;999.90;;;;;;;;;;5098232;28;20453;-83
2021/08/29 09:47:36;;;;;;;1999.90;999.90;;;;;;;;;;5097483;28;20483;-84
2021/08/29 09:50:07;;;;;;;1999.90;999.90;;;;;;;;;;5097540;28;20871;-84
2021/08/29 09:52:34;;;;;;;1999.90;999.90;;;;;;;;;;5096549;28;20455;-84
2021/08/29 09:55:01;;;;;;;1999.90;999.90;;;;;;;;;;5096714;28;20445;-83
2021/08/29 09:57:28;;;;;;;1999.90;999.90;;;;;;;;;;5096460;28;20482;-83
2021/08/29 09:59:55;;;;;;;1999.90;999.90;;;;;;;;;;5097446;28;20449;-84
2021/08/29 10:02:24;;;;;;;1999.90;999.90;;;;;;;;;;5096533;28;20459;-83
2021/08/29 10:05:10;;;;;;;1999.90;999.90;;;;;;;;;;5096218;28;20450;-83
2021/08/29 10:07:39;;;;;;;1999.90;999.90;;;;;;;;;;5096190;28;20484;-83
2021/08/29 10:10:21;;;;;;;1999.90;999.90;;;;;;;;;;5095981;28;20495;-83
2021/08/29 10:12:48;;;;;;;1999.90;999.90;;;;;;;;;;5096260;28;20457;-84
2021/08/29 10:15:17;;;;;;;1999.90;999.90;;;;;;;;;;5096008;28;20450;-84
2021/08/29 10:17:45;;;;;;;1999.90;999.90;;;;;;;;;;5096294;28;20467;-83
2021/08/29 10:20:14;;;;;;;1999.90;999.90;;;;;;;;;;5096048;28;20445;-83
2021/08/29 10:22:43;;;;;;;1999.90;999.90;;;;;;;;;;5096642;28;20448;-83
2021/08/29 10:25:10;;;;;;;1999.90;999.90;;;;;;;;;;5095728;28;20441;-83
2021/08/29 10:27:39;;;;;;;1999.90;999.90;;;;;;;;;;5094901;28;20465;-83
2021/08/29 10:30:08;;;;;;;1999.90;999.90;;;;;;;;;;5095458;28;20546;-83
2021/08/29 10:32:36;;;;;;;1999.90;999.90;;;;;;;;;;5095083;28;20459;-83
2021/08/29 10:35:07;;;;;;;1999.90;999.90;;;;;;;;;;5094819;28;20454;-83
2021/08/29 10:37:34;;;;;;;1999.90;999.90;;;;;;;;;;5095166;28;20474;-83
2021/08/29 10:40:03;;;;;;;1999.90;999.90;;;;;;;;;;5095218;28;20459;-83
2021/08/29 10:42:30;;;;;;;1999.90;999.90;;;;;;;;;;5095714;28;20446;-84
2021/08/29 10:44:58;;;;;;;1999.90;999.90;;;;;;;;;;5094905;28;20446;-83
2021/08/29 10:47:25;;;;;;;1999.90;999.90;;;;;;;;;;5094701;28;20462;-83
2021/08/29 10:49:52;;;;;;;1999.90;999.90;;;;;;;;;;5094549;28;20487;-83
2021/08/29 10:52:20;;;;;;;1999.90;999.90;;;;;;;;;;5099454;28;20459;-83
2021/08/29 10:54:54;;;;;;;1999.90;999.90;;;;;;;;;;5096050;28;20964;-84
2021/08/29 11:00:04;;;;;;;1999.90;999.90;;;;;;;;;;5075921;28;20909;-86
2021/08/29 11:02:37;;;;;;;1999.90;999.90;;;;;;;;;;5078683;28;20449;-86
2021/08/29 11:05:04;;;;;;;1999.90;999.90;;;;;;;;;;5084071;28;20449;-84
2021/08/29 11:07:38;;;;;;;1999.90;999.90;;;;;;;;;;5073731;28;20450;-84
2021/08/29 11:10:06;;;;;;;1999.90;999.90;;;;;;;;;;5073132;28;20488;-86
2021/08/29 11:12:34;;;;;;;1999.90;999.90;;;;;;;;;;5073616;28;20836;-83
2021/08/29 11:15:02;;;;;;;1999.90;999.90;;;;;;;;;;5073554;28;20830;-83
2021/08/29 11:17:31;;;;;;;1999.90;999.90;;;;;;;;;;5073124;28;20482;-85
2021/08/29 11:20:10;;;;;;;1999.90;999.90;;;;;;;;;;5074038;28;20451;-84
2021/08/29 11:22:39;;;;;;;1999.90;999.90;;;;;;;;;;5074413;28;20438;-84
2021/08/29 11:25:12;;;;;;;1999.90;999.90;;;;;;;;;;5073115;28;20515;-84
2021/08/29 11:27:53;;;;;;;1999.90;999.90;;;;;;;;;;5072814;28;20870;-84
2021/08/29 11:30:22;;;;;;;1999.90;999.90;;;;;;;;;;5072944;28;20493;-83
2021/08/29 11:32:55;;;;;;;1999.90;999.90;;;;;;;;;;5074616;28;20446;-84
2021/08/29 11:35:26;;;;;;;1999.90;999.90;;;;;;;;;;5061906;28;20455;-84
2021/08/29 11:38:10;;;;;;;1999.90;999.90;;;;;;;;;;5053748;28;20484;-85
2021/08/29 11:40:50;;;;;;;1999.90;999.90;;;;;;;;;;5054382;28;20456;-85
2021/08/29 11:43:19;;;;;;;1999.90;999.90;;;;;;;;;;5055265;28;20967;-85
2021/08/29 11:45:47;;;;;;;1999.90;999.90;;;;;;;;;;5062808;28;20453;-84
2021/08/29 11:48:24;;;;;;;1999.90;999.90;;;;;;;;;;5077407;28;20478;-84
2021/08/29 11:50:51;;;;;;;1999.90;999.90;;;;;;;;;;5062147;28;20482;-84
2021/08/29 11:53:18;;;;;;;1999.90;999.90;;;;;;;;;;5061949;28;20451;-84
2021/08/29 11:55:45;;;;;;;1999.90;999.90;;;;;;;;;;5059352;28;20968;-83
2021/08/29 11:58:20;;;;;;;1999.90;999.90;;;;;;;;;;5064665;28;20581;-84
2021/08/29 12:00:47;;;;;;;1999.90;999.90;;;;;;;;;;5058727;28;20458;-84
2021/08/29 12:03:14;;;;;;;1999.90;999.90;;;;;;;;;;5054146;28;20456;-84
2021/08/29 12:05:55;;;;;;;1999.90;999.90;;;;;;;;;;5064971;28;20433;-85
2021/08/29 12:08:25;;;;;;;1999.90;999.90;;;;;;;;;;5066274;28;20478;-87
2021/08/29 12:10:53;;;;;;;1999.90;999.90;;;;;;;;;;5061723;28;20497;-86
2021/08/29 12:13:20;;;;;;;1999.90;999.90;;;;;;;;;;5057423;28;20452;-85
2021/08/29 12:15:48;;;;;;;1999.90;999.90;;;;;;;;;;5059626;28;20450;-85
2021/08/29 12:18:16;;;;;;;1999.90;999.90;;;;;;;;;;5059932;28;20504;-85
2021/08/29 12:20:43;;;;;;;1999.90;999.90;;;;;;;;;;5060699;28;20455;-85
2021/08/29 12:23:12;;;;;;;1999.90;999.90;;;;;;;;;;5060008;28;20462;-85
2021/08/29 12:25:39;;;;;;;1999.90;999.90;;;;;;;;;;5059722;28;20454;-85
2021/08/29 12:28:07;;;;;;;1999.90;999.90;;;;;;;;;;5059222;28;20510;-85
2021/08/29 12:30:34;;;;;;;1999.90;999.90;;;;;;;;;;5059460;28;20495;-85
2021/08/29 12:33:09;;;;;;;1999.90;999.90;;;;;;;;;;5056886;28;20544;-87
2021/08/29 12:35:36;;;;;;;1999.90;999.90;;;;;;;;;;5059070;28;20462;-86
2021/08/29 12:38:03;;;;;;;1999.90;999.90;;;;;;;;;;5058632;28;20478;-85
2021/08/29 12:40:35;;;;;;;1999.90;999.90;;;;;;;;;;5059416;28;20444;-85
2021/08/29 12:43:02;;;;;;;1999.90;999.90;;;;;;;;;;5059570;28;20448;-86
2021/08/29 12:45:34;;;;;;;1999.90;999.90;;;;;;;;;;5059841;28;20458;-84
2021/08/29 12:48:01;;;;;;;1999.90;999.90;;;;;;;;;;5059405;28;21020;-85
2021/08/29 12:50:29;;;;;;;1999.90;999.90;;;;;;;;;;5059877;28;20491;-84
2021/08/29 12:53:00;;;;;;;1999.90;999.90;;;;;;;;;;5061440;28;20456;-85
2021/08/29 12:55:30;;;;;;;1999.90;999.90;;;;;;;;;;5058946;28;20452;-86
2021/08/29 12:57:59;;;;;;;1999.90;999.90;;;;;;;;;;5059309;28;20538;-84
2021/08/29 13:00:37;;;;;;;1999.90;999.90;;;;;;;;;;5060180;28;20448;-89
2021/08/29 13:03:04;;;;;;;1999.90;999.90;;;;;;;;;;5062311;28;20459;-84
2021/08/29 13:05:35;;;;;;;1999.90;999.90;;;;;;;;;;5062789;28;20451;-84
2021/08/29 13:08:02;;;;;;;1999.90;999.90;;;;;;;;;;5052983;28;20467;-84
2021/08/29 13:10:29;;;;;;;1999.90;999.90;;;;;;;;;;5055047;28;20590;-84
2021/08/29 13:13:08;;;;;;;1999.90;999.90;;;;;;;;;;5058765;28;20452;-84
2021/08/29 13:15:35;;;;;;;1999.90;999.90;;;;;;;;;;5057699;28;20944;-86
2021/08/29 13:18:03;;;;;;;1999.90;999.90;;;;;;;;;;5058301;28;20477;-86
2021/08/29 13:20:37;;;;;;;1999.90;999.90;;;;;;;;;;5059429;28;20456;-86
2021/08/29 13:23:05;;;;;;;1999.90;999.90;;;;;;;;;;5058539;28;20449;-84
2021/08/29 13:25:32;;;;;;;1999.90;999.90;;;;;;;;;;5056242;28;20462;-84
2021/08/29 13:28:01;;;;;;;1999.90;999.90;;;;;;;;;;5057117;28;20479;-85
2021/08/29 13:30:30;;;;;;;1999.90;999.90;;;;;;;;;;5062897;28;20497;-85
2021/08/29 13:32:58;;;;;;;1999.90;999.90;;;;;;;;;;5059324;28;20444;-85
2021/08/29 13:35:26;;;;;;;1999.90;999.90;;;;;;;;;;5061739;28;20447;-85
2021/08/29 13:37:54;;;;;;;1999.90;999.90;;;;;;;;;;5060854;28;20567;-85
2021/08/29 13:40:22;;;;;;;1999.90;999.90;;;;;;;;;;5058397;28;20457;-84
2021/08/29 13:42:51;;;;;;;1999.90;999.90;;;;;;;;;;5058690;28;20449;-84
2021/08/29 13:45:22;;;;;;;1999.90;999.90;;;;;;;;;;5060292;28;20540;-85
2021/08/29 13:47:50;;;;;;;1999.90;999.90;;;;;;;;;;5059244;28;20568;-84
2021/08/29 13:50:18;;;;;;;1999.90;999.90;;;;;;;;;;5058827;28;20579;-84